Time;durP1;ratioP1;P1;durP2;ratioP2;P2;SDS_P1;SDS_P2;PMS_P1;PMS_P2;Temp;Humidity;BMP_temperature;BMP_pressure;BME280_temperature;BME280_humidity;BME280_pressure;Samples;Min_cycle;Max_cycle;Signal;HPM_P1;HPM_P2
2023/12/25 00:01:13;;;;;;;4.83;3.70;;;;;;;2.99;100.00;97209.22;5035195;28;20135;-66
2023/12/25 00:03:39;;;;;;;4.60;3.70;;;;;;;2.99;100.00;97206.59;5036834;28;20425;-66
2023/12/25 00:06:04;;;;;;;5.20;4.00;;;;;;;2.99;100.00;97209.22;5021126;28;20040;-66
2023/12/25 00:08:30;;;;;;;4.37;3.50;;;;;;;2.97;100.00;97215.59;5021003;28;20070;-66
2023/12/25 00:10:56;;;;;;;5.33;4.10;;;;;;;2.91;100.00;97221.53;5037721;28;20036;-66
2023/12/25 00:13:22;;;;;;;5.77;3.90;;;;;;;2.87;100.00;97217.63;5021045;28;20047;-66
2023/12/25 00:15:48;;;;;;;4.53;4.00;;;;;;;2.82;100.00;97223.38;5036954;28;20044;-68
2023/12/25 00:18:13;;;;;;;3.70;3.20;;;;;;;2.83;100.00;97222.38;5037200;28;20505;-66
2023/12/25 00:20:41;;;;;;;5.10;3.77;;;;;;;2.85;100.00;97217.78;5020674;28;20139;-66
2023/12/25 00:23:07;;;;;;;7.07;4.40;;;;;;;2.83;100.00;97226.81;5037031;28;20063;-65
2023/12/25 00:25:34;;;;;;;4.40;3.57;;;;;;;2.89;100.00;97224.31;4995480;28;20069;-66
2023/12/25 00:28:01;;;;;;;5.13;3.90;;;;;;;2.94;100.00;97229.88;4994371;28;20049;-66
2023/12/25 00:30:27;;;;;;;5.30;3.67;;;;;;;2.90;100.00;97233.84;4994478;28;20090;-68
2023/12/25 00:32:52;;;;;;;5.10;3.90;;;;;;;2.90;100.00;97240.88;4994268;28;20072;-66
2023/12/25 00:35:18;;;;;;;4.93;3.53;;;;;;;2.87;100.00;97246.44;4994312;28;20060;-66
2023/12/25 00:37:44;;;;;;;3.33;3.00;;;;;;;2.87;100.00;97244.66;4994845;28;20467;-65
2023/12/25 00:40:10;;;;;;;4.07;3.40;;;;;;;2.90;100.00;97241.69;4978595;28;20095;-66
2023/12/25 00:42:36;;;;;;;5.47;4.23;;;;;;;2.82;100.00;97246.13;4996802;28;20497;-66
2023/12/25 00:45:01;;;;;;;4.60;3.50;;;;;;;2.86;100.00;97244.81;4964157;28;20156;-65
2023/12/25 00:47:27;;;;;;;4.00;3.27;;;;;;;2.85;100.00;97245.78;4980814;28;20458;-65
2023/12/25 00:49:53;;;;;;;4.97;3.40;;;;;;;2.86;100.00;97250.06;4996657;28;20049;-65
2023/12/25 00:52:19;;;;;;;4.70;3.37;;;;;;;2.86;100.00;97237.75;4996648;28;20566;-65
2023/12/25 00:54:45;;;;;;;4.37;3.47;;;;;;;2.86;100.00;97248.25;4980512;28;20056;-67
2023/12/25 00:57:12;;;;;;;3.97;3.23;;;;;;;2.83;100.00;97245.16;5033001;28;20055;-66
2023/12/25 00:59:38;;;;;;;5.20;3.80;;;;;;;2.77;100.00;97248.44;5024225;28;20048;-65
2023/12/25 01:02:04;;;;;;;3.83;3.17;;;;;;;2.75;100.00;97256.44;5040507;28;20418;-65
2023/12/25 01:04:30;;;;;;;3.97;3.57;;;;;;;2.68;100.00;97247.63;5024348;28;20040;-65
2023/12/25 01:06:55;;;;;;;4.20;3.27;;;;;;;2.65;100.00;97255.84;5024311;28;20047;-66
2023/12/25 01:09:21;;;;;;;5.07;3.53;;;;;;;2.71;100.00;97246.47;5040862;28;20099;-66
2023/12/25 01:11:47;;;;;;;3.97;3.50;;;;;;;2.73;100.00;97245.34;5040447;28;20040;-65
2023/12/25 01:14:13;;;;;;;3.47;3.17;;;;;;;2.79;100.00;97259.56;5040657;28;20139;-65
2023/12/25 01:16:39;;;;;;;4.10;3.10;;;;;;;2.74;100.00;97259.25;5024077;28;20139;-65
2023/12/25 01:19:05;;;;;;;3.97;3.23;;;;;;;2.67;100.00;97259.13;5040373;28;20507;-66
2023/12/25 01:21:34;;;;;;;3.80;3.13;;;;;;;2.66;100.00;97252.22;5024119;28;20109;-66
2023/12/25 01:24:00;;;;;;;5.00;3.20;;;;;;;2.69;100.00;97257.13;5024537;28;20055;-65
2023/12/25 01:26:26;;;;;;;5.07;3.50;;;;;;;2.69;100.00;97251.09;5040310;28;20048;-66
2023/12/25 01:28:52;;;;;;;3.47;2.90;;;;;;;2.73;100.00;97252.38;5040283;28;20043;-66
2023/12/25 01:31:17;;;;;;;4.70;3.03;;;;;;;2.79;100.00;97259.56;5022228;28;20036;-67
2023/12/25 01:33:43;;;;;;;3.33;3.03;;;;;;;2.81;100.00;97255.81;5021837;28;20522;-67
2023/12/25 01:36:09;;;;;;;4.10;3.50;;;;;;;2.65;100.00;97255.00;5038380;28;20056;-67
2023/12/25 01:38:35;;;;;;;4.83;3.70;;;;;;;2.61;100.00;97265.03;5037840;28;20040;-67
2023/12/25 01:41:01;;;;;;;4.37;3.30;;;;;;;2.67;100.00;97271.38;5037948;28;20062;-66
2023/12/25 01:43:27;;;;;;;3.43;3.00;;;;;;;2.64;100.00;97269.09;5037617;28;20291;-67
2023/12/25 01:45:53;;;;;;;3.80;3.03;;;;;;;2.65;100.00;97261.06;5021454;28;20394;-66
2023/12/25 01:48:18;;;;;;;4.10;2.93;;;;;;;2.68;100.00;97271.22;5022040;28;20044;-65
2023/12/25 01:50:45;;;;;;;5.50;4.43;;;;;;;2.65;100.00;97268.09;5023449;28;20044;-68
2023/12/25 01:53:11;;;;;;;4.77;3.47;;;;;;;2.66;100.00;97273.19;5023417;28;20044;-65
2023/12/25 01:55:37;;;;;;;6.17;3.60;;;;;;;2.67;100.00;97266.16;5023042;28;20044;-65
2023/12/25 01:58:03;;;;;;;5.13;4.23;;;;;;;2.72;100.00;97282.19;5007183;28;20040;-65
2023/12/25 02:00:29;;;;;;;4.97;3.27;;;;;;;2.71;100.00;97276.13;5039859;28;20059;-65
2023/12/25 02:02:56;;;;;;;3.90;3.50;;;;;;;2.72;100.00;97269.88;5023416;28;20052;-65
2023/12/25 02:05:21;;;;;;;4.63;3.93;;;;;;;2.75;100.00;97266.13;5023650;28;20059;-65
2023/12/25 02:07:48;;;;;;;4.57;4.00;;;;;;;2.77;100.00;97264.97;5039376;28;20048;-66
2023/12/25 02:10:30;;;;;;;5.60;4.60;;;;;;;2.83;100.00;97264.31;5022165;28;20500;-65
2023/12/25 02:12:57;;;;;;;4.50;3.80;;;;;;;2.75;100.00;97256.44;5022746;28;20546;-65
2023/12/25 02:15:24;;;;;;;5.33;4.00;;;;;;;2.74;100.00;97260.06;5039138;28;20101;-65
2023/12/25 02:17:51;;;;;;;6.37;4.00;;;;;;;2.61;100.00;97265.03;5038819;28;20048;-66
2023/12/25 02:20:18;;;;;;;6.47;4.10;;;;;;;2.60;100.00;97273.03;5039314;28;20124;-65
2023/12/25 02:22:44;;;;;;;5.70;3.97;;;;;;;2.53;100.00;97275.50;5022817;28;20113;-65
2023/12/25 02:25:12;;;;;;;6.03;4.60;;;;;;;2.46;100.00;97266.66;5022280;28;20060;-65
2023/12/25 02:27:39;;;;;;;5.83;4.67;;;;;;;2.55;100.00;97264.84;5055659;28;20501;-65
2023/12/25 02:30:09;;;;;;;8.00;5.40;;;;;;;2.55;100.00;97265.66;5039037;28;20114;-65
2023/12/25 02:32:35;;;;;;;8.03;5.50;;;;;;;2.55;100.00;97264.84;5039030;28;20044;-65
2023/12/25 02:35:01;;;;;;;7.53;5.43;;;;;;;2.53;100.00;97274.69;5038481;28;20375;-65
2023/12/25 02:37:26;;;;;;;7.00;5.20;;;;;;;2.54;100.00;97271.88;5038814;28;20155;-66
2023/12/25 02:39:52;;;;;;;7.97;5.07;;;;;;;2.52;100.00;97270.44;5038611;28;20470;-65
2023/12/25 02:42:18;;;;;;;10.50;6.83;;;;;;;2.39;100.00;97276.16;5038477;28;20110;-65
2023/12/25 02:44:44;;;;;;;8.10;5.80;;;;;;;2.38;100.00;97269.31;5038071;28;20482;-65
2023/12/25 02:47:10;;;;;;;5.77;4.50;;;;;;;2.47;100.00;97272.72;5038710;28;20466;-65
2023/12/25 02:49:35;;;;;;;5.60;4.33;;;;;;;2.53;100.00;97272.88;5022206;28;20080;-65
2023/12/25 02:52:02;;;;;;;5.07;3.37;;;;;;;2.50;100.00;97273.22;5038649;28;20063;-65
2023/12/25 02:54:28;;;;;;;6.27;3.80;;;;;;;2.48;100.00;97284.81;5037947;28;20040;-66
2023/12/25 02:56:54;;;;;;;4.93;3.60;;;;;;;2.43;100.00;97287.94;5038329;28;20131;-66
2023/12/25 02:59:19;;;;;;;4.13;3.30;;;;;;;2.29;100.00;97288.59;5038258;28;20052;-65
2023/12/25 03:01:45;;;;;;;3.43;2.80;;;;;;;2.25;100.00;97283.84;5037770;28;20463;-65
2023/12/25 03:04:11;;;;;;;4.07;2.63;;;;;;;2.28;100.00;97291.38;5021564;28;20040;-65
2023/12/25 03:06:37;;;;;;;3.33;2.80;;;;;;;2.41;100.00;97282.06;5021921;28;20040;-65
2023/12/25 03:09:03;;;;;;;4.03;2.70;;;;;;;2.44;100.00;97276.50;5021540;28;20093;-65
2023/12/25 03:11:28;;;;;;;4.47;3.00;;;;;;;2.38;100.00;97282.41;5038058;28;20072;-64
2023/12/25 03:13:55;;;;;;;3.70;3.27;;;;;;;2.30;100.00;97290.25;5038517;28;20138;-64
2023/12/25 03:16:21;;;;;;;3.50;2.73;;;;;;;2.42;100.00;97286.31;5021607;28;20131;-66
2023/12/25 03:18:47;;;;;;;5.33;2.90;;;;;;;2.36;100.00;97294.00;5037778;28;20048;-65
2023/12/25 03:21:13;;;;;;;3.47;2.80;;;;;;;2.40;100.00;97284.84;5012803;28;20053;-68
2023/12/25 03:23:42;;;;;;;3.30;3.00;;;;;;;2.41;100.00;97279.44;4997587;28;20268;-65
2023/12/25 03:26:08;;;;;;;3.87;3.17;;;;;;;2.40;100.00;97288.28;5013772;28;20046;-66
2023/12/25 03:28:34;;;;;;;3.53;2.90;;;;;;;2.33;100.00;97286.47;4980941;28;20041;-65
2023/12/25 03:31:00;;;;;;;4.87;3.43;;;;;;;2.16;100.00;97290.91;4980762;28;20053;-65
2023/12/25 03:33:26;;;;;;;5.30;3.53;;;;;;;2.15;100.00;97283.19;4997415;28;20099;-64
2023/12/25 03:35:53;;;;;;;3.87;3.30;;;;;;;2.06;100.00;97289.41;4965506;28;20060;-65
2023/12/25 03:38:18;;;;;;;4.73;3.13;;;;;;;2.11;100.00;97281.91;4997047;28;20041;-65
2023/12/25 03:40:44;;;;;;;4.40;3.00;;;;;;;2.17;100.00;97287.28;4964568;28;20049;-65
2023/12/25 03:43:10;;;;;;;4.93;3.47;;;;;;;2.26;100.00;97290.75;4981006;28;20061;-68
2023/12/25 03:45:36;;;;;;;4.60;3.30;;;;;;;2.23;100.00;97276.16;4997006;28;20048;-65
2023/12/25 03:48:02;;;;;;;4.40;3.40;;;;;;;2.27;100.00;97277.47;4996971;28;20467;-65
2023/12/25 03:50:29;;;;;;;5.83;3.60;;;;;;;2.05;100.00;97282.53;4996977;28;20418;-64
2023/12/25 03:52:55;;;;;;;3.83;3.33;;;;;;;2.07;100.00;97280.56;5029543;28;20147;-66
2023/12/25 03:55:21;;;;;;;5.03;3.33;;;;;;;2.02;100.00;97273.22;5037255;28;20052;-64
2023/12/25 03:57:48;;;;;;;3.80;3.37;;;;;;;1.71;100.00;97280.03;5011094;28;20504;-66
2023/12/25 04:00:14;;;;;;;4.37;2.90;;;;;;;1.62;100.00;97257.44;5020858;28;20163;-65
2023/12/25 04:02:41;;;;;;;4.50;3.00;;;;;;;1.67;100.00;97270.88;4973468;28;20058;-69
2023/12/25 04:05:09;;;;;;;3.47;2.80;;;;;;;1.75;100.00;97266.47;5007681;28;20514;-65
2023/12/25 04:07:36;;;;;;;3.70;2.90;;;;;;;1.86;100.00;97267.16;5006777;28;20044;-66
2023/12/25 04:10:04;;;;;;;3.40;2.80;;;;;;;1.89;100.00;97269.44;4989178;28;20045;-65
2023/12/25 04:12:31;;;;;;;4.17;2.73;;;;;;;1.95;100.00;97279.25;4991994;28;20087;-64
2023/12/25 04:14:57;;;;;;;4.10;2.90;;;;;;;1.99;100.00;97270.91;5006010;28;20098;-65
2023/12/25 04:17:24;;;;;;;3.37;2.97;;;;;;;1.94;100.00;97275.00;5002044;28;20132;-66
2023/12/25 04:19:49;;;;;;;7.80;3.53;;;;;;;1.82;100.00;97266.66;4996634;28;20145;-64
2023/12/25 04:22:16;;;;;;;3.97;2.97;;;;;;;1.80;100.00;97257.31;4996660;28;20144;-65
2023/12/25 04:24:42;;;;;;;3.53;3.00;;;;;;;1.80;100.00;97258.13;4995666;28;20053;-72
2023/12/25 04:27:08;;;;;;;3.77;2.70;;;;;;;1.94;100.00;97254.88;4953890;28;20108;-65
2023/12/25 04:29:34;;;;;;;4.23;2.93;;;;;;;1.95;100.00;97250.47;4987737;28;20125;-65
2023/12/25 04:32:01;;;;;;;3.93;3.30;;;;;;;1.89;100.00;97253.75;5003387;28;20088;-66
2023/12/25 04:34:29;;;;;;;8.20;4.00;;;;;;;1.82;100.00;97253.56;5014209;28;20080;-66
2023/12/25 04:36:56;;;;;;;5.00;3.47;;;;;;;1.84;100.00;97250.78;5002759;28;20037;-66
2023/12/25 04:39:22;;;;;;;3.50;3.10;;;;;;;1.79;100.00;97253.88;4998225;28;20045;-66
2023/12/25 04:41:49;;;;;;;5.17;3.23;;;;;;;1.73;100.00;97251.91;4988933;28;20075;-65
2023/12/25 04:44:16;;;;;;;4.50;3.43;;;;;;;1.80;100.00;97252.09;5003481;28;20045;-66
2023/12/25 04:46:42;;;;;;;4.47;3.03;;;;;;;1.71;100.00;97272.19;4997790;28;20037;-65
2023/12/25 04:49:08;;;;;;;4.37;3.20;;;;;;;1.53;100.00;97250.56;4979234;28;20051;-65
2023/12/25 04:51:34;;;;;;;6.57;3.77;;;;;;;1.49;100.00;97260.53;5017752;28;20091;-66
2023/12/25 04:54:02;;;;;;;4.97;3.63;;;;;;;1.60;100.00;97257.59;5002540;28;20053;-65
2023/12/25 04:56:28;;;;;;;7.17;4.33;;;;;;;1.64;100.00;97252.88;4985709;28;20045;-65
2023/12/25 04:58:54;;;;;;;6.07;3.77;;;;;;;1.70;100.00;97255.69;5000278;28;20538;-65
2023/12/25 05:01:21;;;;;;;5.10;3.50;;;;;;;1.68;100.00;97252.41;5017444;28;20084;-64
2023/12/25 05:03:47;;;;;;;5.23;3.57;;;;;;;1.58;100.00;97258.75;5020505;28;20056;-66
2023/12/25 05:06:12;;;;;;;5.67;4.07;;;;;;;1.43;100.00;97248.09;5037057;28;20041;-67
2023/12/25 05:08:38;;;;;;;5.40;3.23;;;;;;;1.31;100.00;97246.75;5020783;28;20481;-65
2023/12/25 05:11:04;;;;;;;4.47;3.40;;;;;;;1.41;100.00;97252.69;5020872;28;20048;-65
2023/12/25 05:13:30;;;;;;;4.00;3.20;;;;;;;1.51;100.00;97253.34;5020651;28;20107;-63
2023/12/25 05:15:58;;;;;;;4.60;3.27;;;;;;;1.15;100.00;97248.50;5020886;28;20498;-64
2023/12/25 05:18:24;;;;;;;5.10;3.40;;;;;;;1.18;100.00;97248.19;5020267;28;20633;-64
2023/12/25 05:20:50;;;;;;;5.43;3.33;;;;;;;1.31;100.00;97249.38;5020415;28;20061;-64
2023/12/25 05:23:42;;;;;;;5.40;3.53;;;;;;;1.43;100.00;97252.50;5021034;28;20136;-63
2023/12/25 05:26:09;;;;;;;4.07;3.00;;;;;;;1.24;100.00;97250.97;5037140;28;20041;-67
2023/12/25 05:28:35;;;;;;;3.37;2.90;;;;;;;1.36;100.00;97256.72;5020047;28;20474;-70
2023/12/25 05:31:02;;;;;;;4.43;3.13;;;;;;;1.39;100.00;97257.25;5020095;28;20044;-67
2023/12/25 05:33:27;;;;;;;4.07;3.00;;;;;;;1.47;100.00;97241.56;5019832;28;20037;-67
2023/12/25 05:35:53;;;;;;;4.93;3.40;;;;;;;1.52;100.00;97254.97;5020006;28;20045;-67
2023/12/25 05:38:21;;;;;;;4.23;3.03;;;;;;;1.58;100.00;97251.72;5018971;28;20041;-68
2023/12/25 05:40:48;;;;;;;4.87;3.60;;;;;;;1.37;100.00;97253.13;5070543;28;20070;-68
2023/12/25 05:43:22;;;;;;;4.37;3.30;;;;;;;1.45;100.00;97264.44;5041174;28;20529;-68
2023/12/25 05:45:51;;;;;;;5.47;3.30;;;;;;;1.31;100.00;97261.59;5039839;28;20056;-69
2023/12/25 05:48:58;;;;;;;4.83;3.30;;;;;;;1.45;100.00;97251.38;5042111;28;20193;-72
2023/12/25 05:51:32;;;;;;;4.93;3.10;;;;;;;1.49;100.00;97254.50;5040896;28;20258;-73
2023/12/25 05:53:58;;;;;;;4.07;3.03;;;;;;;1.39;100.00;97259.03;4969348;28;20068;-73
2023/12/25 05:56:24;;;;;;;5.80;3.33;;;;;;;1.36;100.00;97261.97;4958693;28;20072;-70
2023/12/25 05:58:53;;;;;;;3.13;2.83;;;;;;;1.34;100.00;97263.91;4958297;28;20068;-69
2023/12/25 06:01:20;;;;;;;5.13;3.03;;;;;;;1.20;100.00;97272.38;4956835;28;20054;-69
2023/12/25 06:03:47;;;;;;;4.60;3.10;;;;;;;1.21;100.00;97266.16;4975200;28;20052;-72
2023/12/25 06:06:13;;;;;;;3.97;3.10;;;;;;;1.28;100.00;97267.16;4960093;28;20582;-69
2023/12/25 06:08:39;;;;;;;4.67;3.13;;;;;;;1.15;100.00;97267.59;4943610;28;20133;-69
2023/12/25 06:11:07;;;;;;;4.50;3.30;;;;;;;1.25;100.00;97280.53;4943825;28;20096;-71
2023/12/25 06:13:33;;;;;;;5.70;3.30;;;;;;;1.27;100.00;97276.81;4943061;28;20160;-70
2023/12/25 06:16:49;;;;;;;4.10;2.90;;;;;;;1.47;100.00;97274.75;4943905;28;20136;-69
2023/12/25 06:19:17;;;;;;;5.20;3.20;;;;;;;1.24;100.00;97268.44;4943609;28;20488;-73
2023/12/25 06:21:43;;;;;;;3.77;3.00;;;;;;;1.27;100.00;97273.38;4943891;28;20049;-71
2023/12/25 06:24:09;;;;;;;3.53;2.57;;;;;;;1.32;100.00;97284.19;4942880;28;20148;-70
2023/12/25 06:26:35;;;;;;;6.47;3.57;;;;;;;1.11;100.00;97281.13;4958538;28;20107;-71
2023/12/25 06:29:02;;;;;;;4.13;3.03;;;;;;;1.14;100.00;97262.53;4959275;28;20053;-70
2023/12/25 06:31:28;;;;;;;5.47;3.30;;;;;;;1.11;100.00;97255.81;4943544;28;20085;-70
2023/12/25 06:34:05;;;;;;;3.93;3.20;;;;;;;1.14;100.00;97275.59;4959145;28;20149;-70
2023/12/25 06:36:45;;;;;;;4.40;3.27;;;;;;;1.06;100.00;97270.34;4991364;28;20084;-70
2023/12/25 06:39:16;;;;;;;4.57;3.23;;;;;;;1.21;100.00;97271.38;4952806;28;20162;-71
2023/12/25 06:41:42;;;;;;;5.40;2.97;;;;;;;1.20;100.00;97273.16;4889859;28;20051;-70
2023/12/25 06:45:11;;;;;;;4.23;3.10;;;;;;;1.33;100.00;97281.41;4936323;28;20104;-70
2023/12/25 06:48:04;;;;;;;5.00;2.97;;;;;;;1.49;100.00;97275.41;4968477;28;20368;-71
2023/12/25 06:50:30;;;;;;;;;;;;;;;1.47;100.00;97266.91;4920375;28;20293;-71
2023/12/25 06:52:55;;;;;;;6.50;3.17;;;;;;;1.35;100.00;97271.59;4956608;28;20215;-69
2023/12/25 06:55:21;;;;;;;5.40;2.97;;;;;;;1.21;100.00;97276.63;4977561;28;20038;-70
2023/12/25 06:57:47;;;;;;;4.50;3.23;;;;;;;1.15;100.00;97267.59;5010412;28;20054;-70
2023/12/25 07:00:13;;;;;;;6.30;3.63;;;;;;;1.12;100.00;97273.13;4961269;28;20106;-69
2023/12/25 07:02:46;;;;;;;6.00;3.73;;;;;;;1.17;100.00;97280.53;4973635;28;20053;-69
2023/12/25 07:05:22;;;;;;;4.73;3.67;;;;;;;1.22;100.00;97275.63;4942851;28;20602;-69
2023/12/25 07:07:55;;;;;;;5.60;3.90;;;;;;;1.24;100.00;97261.44;4959203;28;20146;-70
2023/12/25 07:10:21;;;;;;;6.77;4.33;;;;;;;1.14;100.00;97279.03;4958097;28;20053;-69
2023/12/25 07:12:47;;;;;;;5.33;3.97;;;;;;;1.12;100.00;97273.13;4980005;28;20049;-69
2023/12/25 07:15:13;;;;;;;4.90;4.13;;;;;;;1.09;100.00;97276.06;4996723;28;20429;-69
2023/12/25 07:18:04;;;;;;;5.47;3.70;;;;;;;1.20;100.00;97278.41;4996687;28;20658;-69
2023/12/25 07:20:30;;;;;;;6.00;3.90;;;;;;;1.11;100.00;97265.44;4980394;28;20045;-69
2023/12/25 07:23:03;;;;;;;6.20;4.17;;;;;;;1.25;100.00;97257.84;4996631;28;20106;-70
2023/12/25 07:25:32;;;;;;;7.03;3.97;;;;;;;1.20;100.00;97267.16;4996504;28;20049;-69
2023/12/25 07:28:01;;;;;;;5.17;3.70;;;;;;;1.19;100.00;97274.16;4980035;28;20509;-69
2023/12/25 07:30:28;;;;;;;4.80;3.60;;;;;;;1.16;100.00;97264.03;4973025;28;20050;-69
2023/12/25 07:32:53;;;;;;;4.93;3.93;;;;;;;1.14;100.00;97265.97;4980131;28;20053;-69
2023/12/25 07:35:20;;;;;;;5.03;3.77;;;;;;;1.14;100.00;97270.34;4963917;28;20132;-69
2023/12/25 07:37:54;;;;;;;6.53;4.00;;;;;;;1.27;100.00;97260.28;4979832;28;20041;-71
2023/12/25 07:40:25;;;;;;;5.13;3.90;;;;;;;1.33;100.00;97260.50;4996359;28;20041;-71
2023/12/25 07:42:56;;;;;;;6.30;3.92;;;;;;;1.24;100.00;97260.63;4980079;28;20052;-71
2023/12/25 07:45:22;;;;;;;6.55;3.88;;;;;;;1.22;100.00;97260.78;4979972;28;20110;-69
2023/12/25 07:47:48;;;;;;;7.63;4.07;;;;;;;1.23;100.00;97259.00;4964340;28;20068;-69
2023/12/25 07:50:14;;;;;;;7.33;5.17;;;;;;;1.19;100.00;97260.25;4979934;28;20064;-69
2023/12/25 07:52:42;;;;;;;6.23;4.57;;;;;;;1.38;100.00;97257.41;4963908;28;20992;-69
2023/12/25 07:55:08;;;;;;;8.97;5.60;;;;;;;1.24;100.00;97252.78;4963983;28;20053;-71
2023/12/25 07:57:34;;;;;;;10.23;5.80;;;;;;;1.18;100.00;97243.78;4963670;28;20045;-69
2023/12/25 08:00:00;;;;;;;7.07;4.77;;;;;;;1.21;100.00;97253.09;4960109;28;20046;-69
2023/12/25 08:02:29;;;;;;;6.80;5.03;;;;;;;1.14;100.00;97252.06;4971351;28;20512;-71
2023/12/25 08:04:55;;;;;;;8.90;4.80;;;;;;;1.19;100.00;97260.25;4957707;28;20097;-69
2023/12/25 08:07:21;;;;;;;7.63;5.10;;;;;;;1.28;100.00;97243.63;4961442;28;20053;-72
2023/12/25 08:09:50;;;;;;;7.10;4.83;;;;;;;1.26;100.00;97241.16;5010201;28;20052;-69
2023/12/25 08:12:21;;;;;;;6.33;4.27;;;;;;;1.25;100.00;97236.94;4985540;28;20061;-71
2023/12/25 08:14:47;;;;;;;6.37;4.33;;;;;;;1.29;100.00;97225.16;4986136;28;20062;-70
2023/12/25 08:17:13;;;;;;;6.13;4.27;;;;;;;1.33;100.00;97228.28;4938815;28;20076;-69
2023/12/25 08:19:38;;;;;;;6.40;4.20;;;;;;;1.34;100.00;97235.13;5004974;28;20089;-69
2023/12/25 08:22:05;;;;;;;5.27;3.80;;;;;;;1.40;100.00;97214.41;5005683;28;20088;-69
2023/12/25 08:24:31;;;;;;;5.83;4.00;;;;;;;1.41;100.00;97226.53;4956656;28;20408;-69
2023/12/25 08:27:03;;;;;;;8.03;4.37;;;;;;;1.56;100.00;97222.31;4973294;28;20422;-69
2023/12/25 08:29:29;;;;;;;6.43;4.23;;;;;;;1.57;100.00;97226.53;4973136;28;20121;-68
2023/12/25 08:31:55;;;;;;;6.17;3.73;;;;;;;1.71;100.00;97230.31;4973263;28;20054;-69
2023/12/25 08:34:23;;;;;;;6.00;4.23;;;;;;;1.72;100.00;97216.28;4941231;28;20054;-72
2023/12/25 08:36:52;;;;;;;6.40;4.30;;;;;;;1.77;100.00;97205.34;4973233;28;20397;-69
2023/12/25 08:39:27;;;;;;;7.20;4.37;;;;;;;1.70;100.00;97211.22;4991704;28;20095;-69
2023/12/25 08:41:56;;;;;;;6.17;4.00;;;;;;;1.63;100.00;97222.47;4967938;28;20057;-69
2023/12/25 08:44:23;;;;;;;4.83;4.00;;;;;;;1.62;100.00;97211.19;4998714;28;20049;-71
2023/12/25 08:46:49;;;;;;;6.47;3.90;;;;;;;1.64;100.00;97200.56;5032165;28;20132;-68
2023/12/25 08:49:14;;;;;;;5.40;3.77;;;;;;;1.65;100.00;97196.97;4999201;28;20044;-69
2023/12/25 08:51:42;;;;;;;6.50;3.80;;;;;;;1.70;100.00;97187.66;4999161;28;20402;-70
2023/12/25 08:54:10;;;;;;;8.47;4.83;;;;;;;1.74;100.00;97193.38;5015363;28;20040;-68
2023/12/25 08:56:40;;;;;;;5.73;3.93;;;;;;;1.75;100.00;97193.22;5032967;28;20032;-68
2023/12/25 08:59:06;;;;;;;5.43;4.10;;;;;;;1.70;100.00;97189.47;5023192;28;20040;-69
2023/12/25 09:01:32;;;;;;;7.27;3.77;;;;;;;1.71;100.00;97191.09;5022933;28;20043;-68
2023/12/25 09:04:04;;;;;;;5.53;3.07;;;;;;;1.84;100.00;97188.81;5023224;28;20050;-70
2023/12/25 09:06:35;;;;;;;7.00;3.40;;;;;;;1.79;100.00;97191.09;5023335;28;20054;-68
2023/12/25 09:09:01;;;;;;;4.65;2.92;;;;;;;1.70;100.00;97189.47;5039445;28;20059;-68
2023/12/25 09:11:27;;;;;;;4.87;3.13;;;;;;;1.69;100.00;97183.41;5022369;28;20044;-69
2023/12/25 09:13:53;;;;;;;3.40;2.87;;;;;;;1.74;100.00;97164.59;5038964;28;20047;-69
2023/12/25 09:16:20;;;;;;;5.13;3.40;;;;;;;1.73;100.00;97176.06;5039566;28;20044;-68
2023/12/25 09:18:46;;;;;;;6.50;3.40;;;;;;;1.71;100.00;97164.91;4979331;28;20053;-68
2023/12/25 09:21:12;;;;;;;3.03;2.63;;;;;;;1.67;100.00;97174.09;4982610;28;20071;-68
2023/12/25 09:23:40;;;;;;;3.93;2.80;;;;;;;1.61;100.00;97178.16;4940582;28;20078;-68
2023/12/25 09:26:06;;;;;;;4.20;3.00;;;;;;;1.58;100.00;97175.06;4887033;29;20063;-68
2023/12/25 09:28:31;;;;;;;5.70;2.53;;;;;;;1.65;100.00;97176.03;4894527;29;20059;-68
2023/12/25 09:30:57;;;;;;;3.47;2.70;;;;;;;1.65;100.00;97170.81;4865268;29;20124;-68
2023/12/25 09:33:24;;;;;;;3.43;2.50;;;;;;;1.64;100.00;97163.94;4865576;29;20060;-70
2023/12/25 09:35:51;;;;;;;5.87;2.53;;;;;;;1.67;100.00;97154.00;4865704;29;20129;-68
2023/12/25 09:38:17;;;;;;;2.40;2.20;;;;;;;1.64;100.00;97145.66;4881033;29;20068;-68
2023/12/25 09:40:43;;;;;;;4.60;2.50;;;;;;;1.59;100.00;97146.13;4864964;29;20057;-68
2023/12/25 09:43:09;;;;;;;3.63;2.70;;;;;;;1.63;100.00;97139.59;4864628;29;20052;-69
2023/12/25 09:45:37;;;;;;;3.70;2.43;;;;;;;1.68;100.00;97141.72;4865131;29;20483;-69
2023/12/25 09:48:06;;;;;;;3.07;2.30;;;;;;;1.66;100.00;97131.41;4865191;29;20427;-68
2023/12/25 09:50:35;;;;;;;4.43;2.33;;;;;;;1.68;100.00;97133.84;4911491;29;20139;-68
2023/12/25 09:53:01;;;;;;;4.87;2.70;;;;;;;1.66;100.00;97141.06;4917831;29;20354;-69
2023/12/25 09:55:26;;;;;;;3.23;2.83;;;;;;;1.63;100.00;97134.34;4934040;28;20120;-69
2023/12/25 09:57:52;;;;;;;3.67;2.73;;;;;;;1.67;100.00;97138.28;4991818;28;20067;-69
2023/12/25 10:00:19;;;;;;;4.17;2.90;;;;;;;1.70;100.00;97134.53;5035509;28;20062;-68
2023/12/25 10:02:48;;;;;;;4.13;3.10;;;;;;;1.63;100.00;97136.13;5045675;28;20039;-68
2023/12/25 10:05:15;;;;;;;3.87;3.00;;;;;;;1.62;100.00;97121.44;5061209;28;20039;-70
2023/12/25 10:07:42;;;;;;;5.43;2.90;;;;;;;1.68;100.00;97128.63;5061531;28;20254;-68
2023/12/25 10:10:12;;;;;;;4.83;2.97;;;;;;;1.73;100.00;97135.03;5028631;28;20403;-72
2023/12/25 10:12:43;;;;;;;5.38;3.10;;;;;;;1.72;100.00;97120.28;4980467;28;20057;-70
2023/12/25 10:15:09;;;;;;;;;;;;;;;1.75;100.00;97121.78;4969714;28;20419;-69
2023/12/25 10:18:01;;;;;;;3.80;3.00;;;;;;;1.71;100.00;97125.69;5003556;28;19921;-69
2023/12/25 10:20:37;;;;;;;3.77;2.60;;;;;;;1.65;100.00;97113.25;4964868;28;20558;-71
2023/12/25 10:23:53;;;;;;;5.40;3.10;;;;;;;1.59;100.00;97119.16;5020731;28;20060;-69
2023/12/25 10:26:27;;;;;;;3.20;2.80;;;;;;;1.60;100.00;97105.91;4981499;28;20111;-70
2023/12/25 10:29:07;;;;;;;3.53;2.47;;;;;;;1.62;100.00;97113.59;4981320;28;20450;-70
2023/12/25 10:31:49;;;;;;;4.37;2.80;;;;;;;1.59;100.00;97119.16;4990078;28;20065;-73
2023/12/25 10:34:19;;;;;;;3.23;2.40;;;;;;;1.63;100.00;97105.59;4949405;28;20070;-70
2023/12/25 10:36:51;;;;;;;4.13;2.50;;;;;;;1.66;100.00;97107.06;4915807;28;20083;-72
2023/12/25 10:39:32;;;;;;;6.73;3.13;;;;;;;1.62;100.00;97097.91;4917535;29;20524;-71
2023/12/25 10:41:59;;;;;;;3.00;2.58;;;;;;;1.51;100.00;97106.06;4886419;29;20106;-71
2023/12/25 10:44:24;;;;;;;3.30;2.37;;;;;;;1.54;100.00;97103.13;4916354;29;20087;-72
2023/12/25 10:46:59;;;;;;;5.97;2.60;;;;;;;1.63;100.00;97099.53;4917750;29;20050;-72
2023/12/25 10:49:30;;;;;;;2.63;2.37;;;;;;;1.55;100.00;97089.09;4917605;29;20058;-71
2023/12/25 10:51:57;;;;;;;3.13;2.50;;;;;;;1.53;100.00;97097.09;4933603;29;20157;-71
2023/12/25 10:54:24;;;;;;;3.73;2.43;;;;;;;1.58;100.00;97099.22;4901791;29;20066;-71
2023/12/25 10:56:50;;;;;;;4.23;2.67;;;;;;;1.52;100.00;97082.38;4917625;29;20362;-79
2023/12/25 10:59:31;;;;;;;3.33;2.53;;;;;;;1.65;100.00;97095.78;4914088;29;20059;-74
2023/12/25 11:02:03;;;;;;;4.03;2.80;;;;;;;1.68;100.00;97086.78;4899344;29;20075;-73
2023/12/25 11:04:29;;;;;;;3.70;2.50;;;;;;;1.62;100.00;97084.81;4891120;28;20055;-76
2023/12/25 11:06:56;;;;;;;3.80;2.10;;;;;;;1.64;100.00;97085.47;4952113;28;20050;-72
2023/12/25 11:09:23;;;;;;;3.73;2.50;;;;;;;1.56;100.00;97061.94;4954160;28;20155;-73
2023/12/25 11:11:49;;;;;;;2.87;2.43;;;;;;;1.63;100.00;97057.69;4954550;28;20591;-72
2023/12/25 11:14:16;;;;;;;3.37;2.63;;;;;;;1.76;100.00;97052.75;4954576;28;20118;-75
2023/12/25 11:16:43;;;;;;;4.33;2.50;;;;;;;1.80;100.00;97054.06;4913622;29;20174;-73
2023/12/25 11:19:09;;;;;;;2.60;2.30;;;;;;;1.77;100.00;97049.16;4913491;29;20184;-72
2023/12/25 11:21:37;;;;;;;3.20;2.60;;;;;;;1.80;100.00;97053.25;4913288;29;20055;-73
2023/12/25 11:24:03;;;;;;;6.57;2.70;;;;;;;1.68;100.00;97042.31;4897442;29;20075;-73
2023/12/25 11:26:31;;;;;;;4.00;2.50;;;;;;;1.65;100.00;97048.69;4912893;29;20153;-72
2023/12/25 11:29:00;;;;;;;3.97;2.60;;;;;;;1.61;100.00;97036.13;4881915;29;20056;-73
2023/12/25 11:31:29;;;;;;;2.90;2.33;;;;;;;1.63;100.00;97039.38;4893582;29;20079;-72
2023/12/25 11:34:17;;;;;;;3.03;2.27;;;;;;;1.75;100.00;97024.97;4894296;29;20059;-73
2023/12/25 11:36:45;;;;;;;5.47;2.53;;;;;;;1.65;100.00;97035.63;4904885;29;20078;-73
2023/12/25 11:39:15;;;;;;;4.07;2.43;;;;;;;1.63;100.00;97034.13;4948596;28;20055;-74